Time;durP1;ratioP1;P1;durP2;ratioP2;P2;SDS_P1;SDS_P2;PMS_P1;PMS_P2;Temp;Humidity;BMP_temperature;BMP_pressure;BME280_temperature;BME280_humidity;BME280_pressure;Samples;Min_cycle;Max_cycle;Signal;HPM_P1;HPM_P2
2021/03/18 00:00:09;;;;;;;4.70;4.40;;;1.80;99.90;;;;;;5009213;28;20209;-78
2021/03/18 00:02:36;;;;;;;4.60;4.23;;;1.80;99.90;;;;;;5009023;28;20681;-78
2021/03/18 00:05:04;;;;;;;4.50;4.20;;;1.80;99.90;;;;;;5009368;28;20284;-76
2021/03/18 00:07:30;;;;;;;4.53;4.13;;;1.80;99.90;;;;;;5008859;28;20891;-76
2021/03/18 00:09:56;;;;;;;4.77;4.37;;;1.80;99.90;;;;;;5009377;28;20245;-76
2021/03/18 00:12:23;;;;;;;4.10;3.87;;;1.80;99.90;;;;;;5009120;28;20230;-76
2021/03/18 00:14:49;;;;;;;4.80;4.40;;;1.70;99.90;;;;;;5009163;28;20205;-77
2021/03/18 00:17:15;;;;;;;4.70;4.30;;;1.70;99.90;;;;;;5009162;28;20585;-76
2021/03/18 00:19:42;;;;;;;4.47;4.10;;;1.70;99.90;;;;;;5008533;28;20965;-77
2021/03/18 00:22:08;;;;;;;4.50;4.20;;;1.70;99.90;;;;;;5008813;28;20205;-77
2021/03/18 00:24:34;;;;;;;4.87;4.47;;;1.70;99.90;;;;;;5009272;28;20252;-77
2021/03/18 00:27:00;;;;;;;4.40;4.10;;;1.70;99.90;;;;;;5009085;28;20237;-76
2021/03/18 00:29:26;;;;;;;4.53;3.90;;;1.60;99.90;;;;;;5008838;28;20205;-76
2021/03/18 00:31:52;;;;;;;4.10;3.80;;;1.60;99.90;;;;;;5009063;28;20214;-76
2021/03/18 00:34:19;;;;;;;4.30;4.00;;;1.60;99.90;;;;;;5009075;28;20213;-74
2021/03/18 00:36:46;;;;;;;5.43;4.50;;;1.50;99.90;;;;;;5008714;28;20206;-74
2021/03/18 00:39:12;;;;;;;4.63;4.23;;;1.50;99.90;;;;;;5008857;28;20245;-74
2021/03/18 00:41:38;;;;;;;4.33;3.97;;;1.50;99.90;;;;;;5008795;28;20267;-74
2021/03/18 00:44:05;;;;;;;4.43;4.13;;;1.60;99.90;;;;;;5008729;28;20212;-75
2021/03/18 00:46:31;;;;;;;3.90;3.60;;;1.50;99.90;;;;;;5008414;28;20715;-76
2021/03/18 00:48:58;;;;;;;4.47;4.07;;;1.60;99.90;;;;;;5008629;28;20647;-75
2021/03/18 00:51:25;;;;;;;4.73;4.33;;;1.50;99.90;;;;;;5008726;28;20244;-76
2021/03/18 00:53:52;;;;;;;4.33;4.03;;;1.60;99.90;;;;;;5010700;28;20660;-75
2021/03/18 00:56:20;;;;;;;3.93;3.63;;;1.60;99.90;;;;;;5013017;28;20245;-75
2021/03/18 00:58:47;;;;;;;4.40;4.00;;;1.50;99.90;;;;;;5012675;28;20209;-75
2021/03/18 01:01:17;;;;;;;4.10;3.80;;;1.60;99.90;;;;;;5012860;28;20208;-75
2021/03/18 01:03:43;;;;;;;3.70;3.40;;;1.60;99.90;;;;;;5012310;28;20676;-75
2021/03/18 01:06:13;;;;;;;3.80;3.50;;;1.60;99.90;;;;;;5012738;28;20213;-76
2021/03/18 01:08:40;;;;;;;4.37;3.97;;;1.50;99.90;;;;;;5012585;28;20217;-75
2021/03/18 01:11:09;;;;;;;4.03;3.70;;;1.50;99.90;;;;;;5012610;28;20212;-76
2021/03/18 01:13:36;;;;;;;4.17;3.87;;;1.40;99.90;;;;;;5012334;28;20238;-75
2021/03/18 01:16:06;;;;;;;4.53;4.23;;;1.10;99.90;;;;;;5012613;28;20240;-75
2021/03/18 01:18:37;;;;;;;3.97;3.67;;;1.10;99.90;;;;;;5012192;28;20412;-76
2021/03/18 01:21:05;;;;;;;4.07;3.77;;;1.20;99.90;;;;;;5012618;28;20237;-76
2021/03/18 01:23:31;;;;;;;3.70;3.50;;;1.20;99.90;;;;;;5012117;28;20660;-76
2021/03/18 01:25:58;;;;;;;4.23;3.90;;;1.20;99.90;;;;;;5012405;28;20209;-76
2021/03/18 01:28:25;;;;;;;4.10;3.80;;;1.20;99.90;;;;;;5012362;28;20209;-76
2021/03/18 01:30:53;;;;;;;4.20;3.90;;;1.20;99.90;;;;;;5012258;28;20210;-77
2021/03/18 01:33:20;;;;;;;4.20;3.90;;;1.30;99.90;;;;;;5012265;28;20217;-77
2021/03/18 01:35:46;;;;;;;3.67;3.37;;;1.40;99.90;;;;;;5012050;28;20213;-76
2021/03/18 01:38:12;;;;;;;3.90;3.60;;;1.40;99.90;;;;;;5012123;28;20275;-77
2021/03/18 01:40:38;;;;;;;4.10;3.70;;;1.40;99.90;;;;;;5011815;28;20698;-76
2021/03/18 01:43:04;;;;;;;3.80;3.60;;;1.40;99.90;;;;;;5011803;28;20213;-76
2021/03/18 01:45:32;;;;;;;3.63;3.43;;;1.40;99.90;;;;;;5011915;28;20205;-76
2021/03/18 01:47:58;;;;;;;3.53;3.23;;;1.40;99.90;;;;;;5011906;28;20354;-75
2021/03/18 01:50:26;;;;;;;3.07;2.87;;;1.50;99.90;;;;;;5012095;28;20209;-76
2021/03/18 01:52:53;;;;;;;3.20;3.00;;;1.50;99.90;;;;;;5011936;28;20206;-76
2021/03/18 01:55:25;;;;;;;3.70;3.50;;;1.60;99.90;;;;;;5011802;28;20209;-75
2021/03/18 01:57:51;;;;;;;3.20;3.00;;;1.60;99.90;;;;;;5011940;28;20205;-76
2021/03/18 02:00:19;;;;;;;3.70;3.50;;;1.60;99.90;;;;;;5011867;28;20202;-76
2021/03/18 02:02:47;;;;;;;3.90;3.60;;;1.60;99.90;;;;;;5011766;28;20213;-76
2021/03/18 02:05:13;;;;;;;3.73;3.33;;;1.60;99.90;;;;;;5011701;28;20209;-77
2021/03/18 02:07:40;;;;;;;3.93;3.63;;;1.60;99.90;;;;;;5011330;28;20265;-76
2021/03/18 02:10:07;;;;;;;3.83;3.60;;;1.60;99.90;;;;;;5011594;28;20625;-76
2021/03/18 02:12:33;;;;;;;3.43;3.13;;;1.60;99.90;;;;;;5011077;28;20225;-75
2021/03/18 02:15:00;;;;;;;3.40;3.10;;;1.60;99.90;;;;;;5011246;28;20240;-76
2021/03/18 02:17:45;;;;;;;3.77;3.47;;;1.50;99.90;;;;;;5011253;28;20268;-77
2021/03/18 02:21:05;;;;;;;3.40;3.10;;;1.40;99.90;;;;;;5011199;28;20244;-75
2021/03/18 02:24:10;;;;;;;2.97;2.77;;;1.50;99.90;;;;;;5011185;28;20193;-76
2021/03/18 02:27:06;;;;;;;3.30;3.00;;;1.50;99.90;;;;;;5011289;28;20275;-76
2021/03/18 02:30:25;;;;;;;3.20;3.00;;;1.50;99.90;;;;;;5011286;28;20237;-77
2021/03/18 02:33:19;;;;;;;3.13;2.90;;;1.50;99.90;;;;;;5010613;28;20723;-76
2021/03/18 02:35:48;;;;;;;3.13;2.93;;;1.60;99.90;;;;;;5010893;28;20234;-76
2021/03/18 02:38:18;;;;;;;3.40;3.20;;;1.50;99.90;;;;;;5011052;28;20233;-76
2021/03/18 02:40:47;;;;;;;3.23;3.03;;;1.60;99.90;;;;;;5011051;28;20193;-76
2021/03/18 02:43:17;;;;;;;3.40;3.10;;;1.50;99.90;;;;;;5010799;28;20259;-76
2021/03/18 02:45:47;;;;;;;3.00;2.80;;;1.50;99.90;;;;;;5010748;28;20209;-76
2021/03/18 02:48:18;;;;;;;3.30;3.10;;;1.60;99.90;;;;;;5010174;28;20703;-76
2021/03/18 02:50:46;;;;;;;3.20;2.87;;;1.60;99.90;;;;;;5010581;28;20206;-76
2021/03/18 02:53:15;;;;;;;4.00;3.30;;;1.60;99.90;;;;;;5011042;28;20415;-76
2021/03/18 02:55:43;;;;;;;3.50;3.30;;;1.60;99.90;;;;;;5010767;28;20220;-76
2021/03/18 02:58:12;;;;;;;3.00;2.80;;;1.60;99.90;;;;;;5010761;28;20209;-76
2021/03/18 03:00:39;;;;;;;3.60;3.30;;;1.60;99.90;;;;;;5010605;28;20280;-77
2021/03/18 03:03:06;;;;;;;3.10;2.90;;;1.70;99.90;;;;;;5010406;28;20726;-77
2021/03/18 03:05:34;;;;;;;3.27;3.00;;;1.70;99.90;;;;;;5010689;28;20248;-77
2021/03/18 03:08:05;;;;;;;3.13;2.93;;;1.70;99.90;;;;;;5010184;28;20607;-76
2021/03/18 03:10:32;;;;;;;3.40;3.10;;;1.70;99.90;;;;;;5010083;28;20641;-77
2021/03/18 03:12:59;;;;;;;3.60;3.30;;;1.70;99.90;;;;;;5010427;28;20297;-78
2021/03/18 03:15:29;;;;;;;3.37;3.17;;;1.70;99.90;;;;;;5009999;28;20206;-76
2021/03/18 03:17:58;;;;;;;3.17;2.90;;;1.70;99.90;;;;;;5010179;28;20216;-76
2021/03/18 03:20:26;;;;;;;3.40;3.10;;;1.70;99.90;;;;;;5009811;28;20244;-76
2021/03/18 03:22:53;;;;;;;3.50;3.17;;;1.70;99.90;;;;;;5009855;28;20264;-76
2021/03/18 03:25:21;;;;;;;3.30;3.10;;;1.70;99.90;;;;;;5010082;28;20202;-76
2021/03/18 03:27:48;;;;;;;3.17;2.97;;;1.70;99.90;;;;;;5010126;28;20256;-76
2021/03/18 03:30:16;;;;;;;3.43;3.13;;;1.70;99.90;;;;;;5009859;28;20817;-76
2021/03/18 03:32:45;;;;;;;3.83;3.00;;;1.70;99.90;;;;;;5009711;28;20336;-75
2021/03/18 03:35:12;;;;;;;3.30;3.10;;;1.70;99.90;;;;;;5010167;28;20256;-76
2021/03/18 03:37:39;;;;;;;3.30;2.97;;;1.70;99.90;;;;;;5010015;28;20201;-76
2021/03/18 03:40:08;;;;;;;3.30;3.00;;;1.70;99.90;;;;;;5009983;28;20202;-76
2021/03/18 03:42:36;;;;;;;4.03;3.00;;;1.70;99.90;;;;;;5009620;28;20209;-76
2021/03/18 03:45:03;;;;;;;3.43;3.13;;;1.70;99.90;;;;;;5009983;28;20213;-75
2021/03/18 03:47:29;;;;;;;3.37;3.07;;;1.70;99.90;;;;;;5009857;28;20225;-77
2021/03/18 03:49:56;;;;;;;3.77;3.10;;;1.70;99.90;;;;;;5009554;28;20264;-76
2021/03/18 03:52:26;;;;;;;3.20;3.00;;;1.70;99.90;;;;;;5009703;28;20205;-77
2021/03/18 03:54:59;;;;;;;4.13;3.63;;;1.70;99.90;;;;;;5009713;28;20224;-77
2021/03/18 03:57:32;;;;;;;3.20;3.00;;;1.70;99.90;;;;;;5009803;28;20197;-77
2021/03/18 04:00:01;;;;;;;3.83;3.30;;;1.70;99.90;;;;;;5009544;28;20229;-78
2021/03/18 04:02:30;;;;;;;3.80;3.50;;;1.70;99.90;;;;;;5009673;28;20581;-78
2021/03/18 04:04:56;;;;;;;3.87;3.57;;;1.70;99.90;;;;;;5008994;28;20252;-78
2021/03/18 04:07:28;;;;;;;3.20;3.00;;;1.70;99.90;;;;;;5020372;28;20257;-78
2021/03/18 04:09:58;;;;;;;3.23;2.93;;;1.70;99.90;;;;;;5012983;28;20233;-75
2021/03/18 04:12:29;;;;;;;3.70;3.40;;;1.70;99.90;;;;;;5009177;28;20230;-75
2021/03/18 04:14:58;;;;;;;3.17;2.97;;;1.70;99.90;;;;;;5003584;28;20647;-75
2021/03/18 04:17:26;;;;;;;3.23;3.00;;;1.80;99.90;;;;;;5023533;28;20247;-75
2021/03/18 04:19:55;;;;;;;3.60;3.30;;;1.70;99.90;;;;;;5019409;28;20264;-76
2021/03/18 04:22:23;;;;;;;3.23;3.00;;;1.80;99.90;;;;;;5007637;28;20205;-75
2021/03/18 04:24:51;;;;;;;3.40;3.20;;;1.70;99.90;;;;;;5004894;28;20209;-76
2021/03/18 04:27:18;;;;;;;3.60;3.30;;;1.70;99.90;;;;;;4988217;28;20263;-75
2021/03/18 04:29:46;;;;;;;3.50;3.30;;;1.70;99.90;;;;;;5002895;28;20201;-76
2021/03/18 04:32:14;;;;;;;3.80;3.50;;;1.70;99.90;;;;;;5015128;28;20259;-76
2021/03/18 04:34:43;;;;;;;3.57;3.37;;;1.70;99.90;;;;;;5024707;28;20215;-75
2021/03/18 04:37:11;;;;;;;3.30;3.10;;;1.70;99.90;;;;;;5024559;28;20240;-75
2021/03/18 04:39:39;;;;;;;3.33;3.10;;;1.70;99.90;;;;;;5024483;28;20208;-75
2021/03/18 04:42:07;;;;;;;3.80;3.50;;;1.70;99.90;;;;;;5024641;28;20700;-76
2021/03/18 04:44:35;;;;;;;3.57;3.27;;;1.70;99.90;;;;;;5024552;28;20651;-75
2021/03/18 04:47:02;;;;;;;3.73;3.43;;;1.70;99.90;;;;;;5024818;28;20235;-75
2021/03/18 04:49:29;;;;;;;3.97;3.67;;;1.70;99.90;;;;;;5024738;28;20235;-75
2021/03/18 04:51:56;;;;;;;3.33;3.00;;;1.70;99.90;;;;;;5024510;28;20213;-75
2021/03/18 04:54:23;;;;;;;3.70;3.40;;;1.70;99.90;;;;;;5024859;28;20617;-75
2021/03/18 04:56:50;;;;;;;3.60;3.33;;;1.70;99.90;;;;;;5024312;28;20299;-75
2021/03/18 04:59:18;;;;;;;3.60;3.40;;;1.70;99.90;;;;;;5014387;28;20632;-74
2021/03/18 05:01:46;;;;;;;5.07;4.23;;;1.80;99.90;;;;;;5003960;28;20202;-74
2021/03/18 05:04:14;;;;;;;3.80;3.53;;;1.80;99.90;;;;;;5014933;28;20668;-75
2021/03/18 05:06:41;;;;;;;4.03;3.73;;;1.70;99.90;;;;;;5017493;28;20776;-74
2021/03/18 05:09:08;;;;;;;4.40;4.07;;;1.80;99.90;;;;;;5018069;28;20247;-75
2021/03/18 05:11:37;;;;;;;4.23;3.93;;;1.80;99.90;;;;;;5017675;28;20200;-75
2021/03/18 05:14:03;;;;;;;4.00;3.67;;;1.80;99.90;;;;;;5016737;28;20702;-75
2021/03/18 05:16:30;;;;;;;4.07;3.77;;;1.70;99.90;;;;;;5016023;28;20246;-75
2021/03/18 05:18:56;;;;;;;3.70;3.40;;;1.70;99.90;;;;;;5013934;28;20239;-77
2021/03/18 05:21:22;;;;;;;4.17;3.87;;;1.70;99.90;;;;;;5018765;28;20647;-76
2021/03/18 05:23:49;;;;;;;3.87;3.57;;;1.70;99.90;;;;;;5016067;28;20201;-76
2021/03/18 05:26:16;;;;;;;3.77;3.53;;;1.80;99.90;;;;;;5017868;28;20196;-76
2021/03/18 05:28:42;;;;;;;4.00;3.70;;;1.80;99.90;;;;;;5016374;28;20252;-75
2021/03/18 05:31:08;;;;;;;3.80;3.60;;;1.70;99.90;;;;;;5015825;28;20208;-75
2021/03/18 05:33:34;;;;;;;4.20;3.90;;;1.70;99.90;;;;;;5017191;28;20236;-76
2021/03/18 05:36:00;;;;;;;3.43;3.20;;;1.70;99.90;;;;;;5016486;28;20218;-76
2021/03/18 05:38:27;;;;;;;4.07;3.77;;;1.70;99.90;;;;;;5016463;28;20197;-76
2021/03/18 05:40:55;;;;;;;3.87;3.57;;;1.70;99.90;;;;;;5015798;28;20206;-76
2021/03/18 05:43:23;;;;;;;3.73;3.53;;;1.80;99.90;;;;;;5021863;28;20201;-77
2021/03/18 05:45:50;;;;;;;3.87;3.57;;;1.80;99.90;;;;;;5021020;28;20215;-76
2021/03/18 05:48:18;;;;;;;3.90;3.60;;;1.80;99.90;;;;;;5016088;28;20235;-76
2021/03/18 05:50:45;;;;;;;4.17;3.77;;;1.80;99.90;;;;;;5020232;28;20233;-76
2021/03/18 05:53:12;;;;;;;4.73;3.63;;;1.80;99.90;;;;;;5021693;28;20572;-76
2021/03/18 05:55:38;;;;;;;4.33;3.70;;;1.80;99.90;;;;;;5021116;28;20628;-76
2021/03/18 05:58:04;;;;;;;6.03;4.17;;;1.80;99.90;;;;;;5021443;28;20302;-74
2021/03/18 06:00:34;;;;;;;4.90;4.40;;;1.80;99.90;;;;;;5021023;28;20271;-74
2021/03/18 06:03:00;;;;;;;4.10;3.80;;;1.80;99.90;;;;;;5019647;28;20209;-76
2021/03/18 06:05:27;;;;;;;4.57;4.17;;;1.80;99.90;;;;;;5019603;28;20252;-75
2021/03/18 06:07:53;;;;;;;4.07;3.77;;;1.80;99.90;;;;;;5020707;28;20252;-76
2021/03/18 06:10:20;;;;;;;3.70;3.50;;;1.80;99.90;;;;;;5018499;28;20286;-76
2021/03/18 06:12:49;;;;;;;4.60;4.20;;;1.90;99.90;;;;;;5017989;28;20221;-76
2021/03/18 06:15:16;;;;;;;4.30;3.93;;;1.90;99.90;;;;;;5021211;28;20225;-75
2021/03/18 06:17:43;;;;;;;4.47;4.17;;;1.90;99.90;;;;;;5019164;28;20256;-75
2021/03/18 06:20:11;;;;;;;4.40;4.10;;;1.90;99.90;;;;;;5017950;28;20654;-75
2021/03/18 06:22:39;;;;;;;4.80;4.33;;;2.00;99.90;;;;;;5019594;28;20232;-75
2021/03/18 06:25:18;;;;;;;4.67;4.27;;;2.00;99.90;;;;;;5015311;28;20205;-74
2021/03/18 06:27:44;;;;;;;4.70;4.20;;;2.10;99.90;;;;;;5015021;28;20245;-70
2021/03/18 06:30:11;;;;;;;4.67;4.37;;;2.10;99.90;;;;;;5015136;28;20208;-71
2021/03/18 06:32:37;;;;;;;4.80;4.40;;;2.00;99.90;;;;;;5014413;28;20224;-76
2021/03/18 06:35:06;;;;;;;4.57;4.27;;;2.00;99.90;;;;;;5020835;28;20236;-75
2021/03/18 06:37:38;;;;;;;6.10;5.50;;;1.90;99.90;;;;;;5019134;28;20197;-75
2021/03/18 06:40:14;;;;;;;4.77;4.37;;;2.00;99.90;;;;;;5020806;28;20197;-75
2021/03/18 06:42:42;;;;;;;6.27;4.47;;;2.00;99.90;;;;;;5023166;28;20205;-76
2021/03/18 06:45:11;;;;;;;4.83;4.43;;;2.00;99.90;;;;;;5020492;28;20201;-75
2021/03/18 06:47:46;;;;;;;5.17;4.47;;;2.00;99.90;;;;;;5020203;28;20696;-75
2021/03/18 06:50:15;;;;;;;4.83;4.43;;;2.00;99.90;;;;;;5018621;28;20197;-76
2021/03/18 06:52:41;;;;;;;5.70;5.20;;;2.00;99.90;;;;;;5017731;28;20934;-75
2021/03/18 06:55:09;;;;;;;5.30;4.80;;;2.00;99.90;;;;;;5021222;28;20202;-76
2021/03/18 06:57:36;;;;;;;5.47;5.07;;;2.00;99.90;;;;;;5014957;28;20198;-75
2021/03/18 07:00:05;;;;;;;4.77;4.43;;;2.00;99.90;;;;;;5009148;28;20202;-75
2021/03/18 07:02:39;;;;;;;4.90;4.50;;;2.00;99.90;;;;;;5010058;28;20209;-75
2021/03/18 07:05:17;;;;;;;6.73;4.93;;;2.00;99.90;;;;;;5010464;28;20189;-76
2021/03/18 07:07:43;;;;;;;6.53;5.47;;;1.90;99.90;;;;;;5009857;28;20225;-75
2021/03/18 07:10:11;;;;;;;5.13;4.63;;;1.90;99.90;;;;;;5009862;28;20213;-75
2021/03/18 07:12:38;;;;;;;5.30;4.87;;;1.80;99.90;;;;;;5009659;28;20260;-75
2021/03/18 07:15:16;;;;;;;5.30;4.73;;;1.80;99.90;;;;;;5009929;28;20202;-75
2021/03/18 07:17:42;;;;;;;5.97;5.27;;;2.00;99.90;;;;;;5010105;28;20209;-75
2021/03/18 07:20:19;;;;;;;5.87;5.17;;;2.00;99.90;;;;;;5009483;28;20260;-76
2021/03/18 07:22:47;;;;;;;5.83;4.90;;;2.10;99.90;;;;;;5009825;28;20224;-77
2021/03/18 07:25:14;;;;;;;6.17;5.23;;;2.20;99.90;;;;;;5009644;28;20209;-76
2021/03/18 07:27:43;;;;;;;7.20;5.17;;;2.20;99.90;;;;;;5009481;28;20257;-75
2021/03/18 07:30:11;;;;;;;5.67;5.20;;;2.30;99.90;;;;;;5009797;28;20205;-75
2021/03/18 07:32:37;;;;;;;5.30;4.90;;;2.30;99.90;;;;;;5009367;28;20660;-76
2021/03/18 07:35:05;;;;;;;5.93;5.37;;;2.40;99.90;;;;;;5009156;28;20672;-75
2021/03/18 07:37:32;;;;;;;5.90;5.40;;;2.50;99.90;;;;;;5009787;28;20210;-75
2021/03/18 07:40:00;;;;;;;6.73;5.90;;;2.50;99.90;;;;;;5009550;28;20205;-75
2021/03/18 07:42:26;;;;;;;6.43;5.83;;;2.40;99.90;;;;;;5014588;28;20546;-75
2021/03/18 07:44:53;;;;;;;6.17;5.67;;;2.40;99.90;;;;;;5009400;28;20216;-76
2021/03/18 07:47:20;;;;;;;6.40;5.80;;;2.50;99.90;;;;;;5009628;28;20321;-75
2021/03/18 07:49:49;;;;;;;6.17;5.67;;;2.50;99.90;;;;;;5011667;28;20615;-75
2021/03/18 07:52:20;;;;;;;6.40;5.80;;;2.40;99.90;;;;;;5009418;28;20197;-75
2021/03/18 07:54:49;;;;;;;6.43;5.80;;;2.50;99.90;;;;;;5008909;28;20722;-75
2021/03/18 07:57:16;;;;;;;6.37;5.77;;;2.50;99.90;;;;;;5009121;28;20608;-76
2021/03/18 07:59:43;;;;;;;6.47;5.97;;;2.60;99.90;;;;;;5009531;28;20205;-76
2021/03/18 08:02:11;;;;;;;6.90;6.20;;;2.70;99.90;;;;;;5022251;28;20259;-75
2021/03/18 08:04:41;;;;;;;6.97;6.27;;;2.70;99.90;;;;;;5028455;28;20579;-75
2021/03/18 08:07:07;;;;;;;7.67;6.20;;;2.80;99.90;;;;;;5023286;28;20570;-76
2021/03/18 08:09:57;;;;;;;5.87;5.43;;;2.80;99.90;;;;;;5009030;28;20209;-76
2021/03/18 08:12:44;;;;;;;7.23;6.47;;;3.00;99.90;;;;;;5009433;28;20731;-76
2021/03/18 08:15:25;;;;;;;7.23;6.60;;;3.10;99.90;;;;;;4989200;28;20209;-76
2021/03/18 08:17:53;;;;;;;7.40;6.70;;;3.20;99.90;;;;;;4989441;28;20214;-76
2021/03/18 08:20:56;;;;;;;7.40;6.70;;;3.30;99.90;;;;;;5016735;28;20225;-73
2021/03/18 08:23:36;;;;;;;7.00;6.50;;;3.40;99.90;;;;;;5014997;28;20193;-77
2021/03/18 08:26:05;;;;;;;8.30;7.50;;;3.60;99.90;;;;;;5009320;28;20197;-77
2021/03/18 08:28:35;;;;;;;7.97;7.17;;;3.50;99.90;;;;;;5015593;28;20233;-77
2021/03/18 08:31:01;;;;;;;8.37;7.27;;;3.50;99.90;;;;;;5016633;28;20854;-77
2021/03/18 08:33:32;;;;;;;8.13;7.37;;;3.50;99.90;;;;;;5018774;28;20664;-77
2021/03/18 08:36:20;;;;;;;7.57;6.87;;;3.50;99.90;;;;;;5019037;28;20197;-75
2021/03/18 08:38:50;;;;;;;8.23;6.23;;;3.50;99.90;;;;;;5017999;28;20196;-77
2021/03/18 08:41:35;;;;;;;8.17;7.40;;;3.40;99.90;;;;;;5015949;28;20193;-77
2021/03/18 08:44:12;;;;;;;18.30;8.30;;;3.50;99.90;;;;;;5018423;28;20209;-78
2021/03/18 08:46:41;;;;;;;8.00;7.20;;;3.40;99.90;;;;;;5010256;28;20208;-77
2021/03/18 08:49:29;;;;;;;7.57;6.87;;;3.40;99.90;;;;;;5013211;28;20240;-77
2021/03/18 08:51:56;;;;;;;11.27;7.97;;;3.40;99.90;;;;;;5018263;28;20203;-77
2021/03/18 08:54:50;;;;;;;8.20;7.40;;;3.40;99.90;;;;;;5015703;28;20213;-77
2021/03/18 08:57:25;;;;;;;13.37;8.00;;;3.40;99.90;;;;;;5021236;28;20213;-76
2021/03/18 08:59:54;;;;;;;8.80;7.30;;;3.40;99.90;;;;;;5019798;28;20229;-76
2021/03/18 09:02:24;;;;;;;11.33;8.07;;;3.50;99.90;;;;;;5010489;28;20241;-76
2021/03/18 09:04:51;;;;;;;10.43;8.27;;;3.60;99.90;;;;;;5011988;28;20620;-76
2021/03/18 09:07:21;;;;;;;9.77;8.57;;;3.70;99.90;;;;;;5027551;28;20266;-76
2021/03/18 09:09:58;;;;;;;9.90;7.53;;;3.60;99.90;;;;;;5027631;28;20596;-76
2021/03/18 09:12:25;;;;;;;9.33;7.60;;;3.60;99.90;;;;;;5028269;28;20225;-76
2021/03/18 09:14:51;;;;;;;10.47;6.93;;;3.60;99.90;;;;;;5029770;28;20209;-76
2021/03/18 09:17:17;;;;;;;6.67;6.10;;;3.50;99.90;;;;;;5032414;28;20217;-76
2021/03/18 09:19:45;;;;;;;6.70;6.10;;;3.40;99.90;;;;;;5031596;28;20255;-76
2021/03/18 09:22:14;;;;;;;6.13;5.50;;;3.30;99.90;;;;;;5032039;28;20232;-76
2021/03/18 09:24:43;;;;;;;7.67;6.87;;;3.30;99.90;;;;;;5031700;28;20234;-76
2021/03/18 09:27:11;;;;;;;8.53;7.30;;;3.30;99.90;;;;;;5030730;28;20229;-76
2021/03/18 09:29:39;;;;;;;8.13;7.10;;;3.40;99.90;;;;;;5018741;28;20237;-77
2021/03/18 09:32:07;;;;;;;7.80;7.10;;;3.40;99.90;;;;;;5031885;28;20208;-76
2021/03/18 09:34:35;;;;;;;9.10;7.43;;;3.30;99.90;;;;;;5031484;28;20208;-76
2021/03/18 09:37:02;;;;;;;7.90;7.13;;;3.30;99.90;;;;;;5031511;28;20215;-76
2021/03/18 09:39:28;;;;;;;8.00;7.13;;;3.30;99.90;;;;;;5031636;28;20267;-76
2021/03/18 09:41:59;;;;;;;9.03;7.37;;;3.40;99.90;;;;;;5031647;28;20341;-76
2021/03/18 09:44:27;;;;;;;7.70;6.90;;;3.50;99.90;;;;;;5030656;28;20254;-76
2021/03/18 09:46:57;;;;;;;7.80;7.00;;;3.50;99.90;;;;;;5011399;28;20212;-77
2021/03/18 09:49:27;;;;;;;8.20;7.40;;;3.50;99.90;;;;;;5021489;28;20208;-77
2021/03/18 09:51:54;;;;;;;10.70;7.90;;;3.60;99.90;;;;;;5014785;28;20679;-76
2021/03/18 09:54:23;;;;;;;11.10;7.63;;;3.80;99.90;;;;;;5021619;28;20218;-75
2021/03/18 09:56:51;;;;;;;9.43;8.50;;;3.90;99.90;;;;;;5014743;28;20263;-77
2021/03/18 09:59:20;;;;;;;9.10;7.90;;;4.10;99.90;;;;;;5011528;28;20210;-77
2021/03/18 10:01:46;;;;;;;8.53;7.70;;;4.20;99.90;;;;;;5011320;28;20223;-76
2021/03/18 10:04:15;;;;;;;8.70;7.77;;;4.20;99.90;;;;;;5011735;28;20256;-76
2021/03/18 10:06:44;;;;;;;11.73;8.27;;;4.30;99.90;;;;;;5011185;28;20232;-75
2021/03/18 10:09:15;;;;;;;7.97;7.10;;;4.50;99.90;;;;;;5011311;28;20237;-76
2021/03/18 10:11:41;;;;;;;8.87;7.77;;;4.60;99.90;;;;;;5010770;28;20779;-75
2021/03/18 10:14:09;;;;;;;7.60;6.87;;;4.80;99.90;;;;;;5011339;28;20201;-75
2021/03/18 10:16:37;;;;;;;8.30;7.47;;;4.80;99.90;;;;;;5011059;28;20691;-75
2021/03/18 10:19:05;;;;;;;8.33;7.53;;;4.90;99.90;;;;;;5010995;28;20241;-76
2021/03/18 10:21:32;;;;;;;6.87;6.27;;;4.90;99.90;;;;;;5011150;28;20240;-76
2021/03/18 10:24:01;;;;;;;6.97;6.37;;;4.90;99.90;;;;;;5011271;28;20610;-75
2021/03/18 10:26:28;;;;;;;8.00;7.20;;;4.90;99.90;;;;;;5011271;28;20256;-75
2021/03/18 10:28:58;;;;;;;8.60;7.17;;;5.00;99.90;;;;;;5011039;28;20237;-76
2021/03/18 10:31:25;;;;;;;9.60;7.03;;;5.00;99.90;;;;;;5011164;28;20214;-76
2021/03/18 10:33:51;;;;;;;8.23;7.30;;;5.00;99.90;;;;;;5011047;28;20268;-75
2021/03/18 10:36:33;;;;;;;8.67;7.77;;;5.10;99.90;;;;;;5011231;28;20213;-76
2021/03/18 10:39:01;;;;;;;8.40;7.40;;;5.30;99.90;;;;;;5010736;28;20197;-76
2021/03/18 10:41:27;;;;;;;8.53;6.93;;;5.40;99.90;;;;;;5010691;28;20692;-76
2021/03/18 10:43:54;;;;;;;10.90;7.00;;;5.60;99.90;;;;;;5010691;28;20217;-76
2021/03/18 10:46:28;;;;;;;8.07;7.20;;;5.70;99.90;;;;;;5010845;28;20229;-76
2021/03/18 10:48:55;;;;;;;8.90;7.83;;;5.70;99.90;;;;;;5010392;28;20252;-76
2021/03/18 10:51:22;;;;;;;8.77;7.80;;;5.70;99.90;;;;;;5010490;28;20206;-76
2021/03/18 10:53:50;;;;;;;7.60;6.80;;;5.70;99.90;;;;;;5010488;28;20580;-76
2021/03/18 10:56:19;;;;;;;8.47;7.47;;;5.50;99.90;;;;;;5010599;28;20217;-76
2021/03/18 10:58:46;;;;;;;8.27;7.47;;;5.30;99.90;;;;;;5010467;28;20570;-76
2021/03/18 11:01:13;;;;;;;8.47;7.50;;;5.30;99.90;;;;;;5010435;28;20300;-76
2021/03/18 11:03:41;;;;;;;8.17;7.40;;;5.30;99.90;;;;;;5010281;28;20208;-76
2021/03/18 11:06:15;;;;;;;8.17;7.30;;;5.30;99.90;;;;;;5010090;28;20206;-76
2021/03/18 11:08:43;;;;;;;8.67;7.70;;;5.30;99.90;;;;;;5009574;28;20229;-76
2021/03/18 11:11:14;;;;;;;8.63;7.77;;;5.30;99.90;;;;;;5010207;28;20228;-75
2021/03/18 11:13:42;;;;;;;8.53;7.70;;;5.30;99.90;;;;;;5010520;28;20230;-75
2021/03/18 11:16:09;;;;;;;7.70;7.00;;;5.30;99.90;;;;;;5009912;28;20210;-76
2021/03/18 11:18:39;;;;;;;8.00;6.83;;;5.30;99.90;;;;;;5009960;28;20205;-75
2021/03/18 11:21:17;;;;;;;7.17;6.47;;;5.30;99.90;;;;;;5010033;28;20206;-76
2021/03/18 11:23:43;;;;;;;7.23;6.50;;;5.40;99.90;;;;;;5009927;28;20228;-76
2021/03/18 11:26:10;;;;;;;10.70;7.90;;;5.40;99.90;;;;;;5009883;28;20612;-76
2021/03/18 11:28:46;;;;;;;8.97;8.07;;;5.50;99.90;;;;;;5009862;28;20248;-76
2021/03/18 11:31:14;;;;;;;9.83;6.93;;;5.50;99.90;;;;;;5009555;28;20190;-76
2021/03/18 11:33:40;;;;;;;7.43;6.70;;;5.60;99.90;;;;;;5009586;28;20213;-76
2021/03/18 11:36:07;;;;;;;6.70;6.00;;;5.60;99.90;;;;;;5009819;28;20206;-76
2021/03/18 11:38:34;;;;;;;8.17;6.30;;;5.60;99.90;;;;;;5008851;28;20611;-75
2021/03/18 11:41:00;;;;;;;6.77;6.00;;;5.70;99.90;;;;;;5009598;28;20224;-76
2021/03/18 11:43:27;;;;;;;6.23;5.63;;;5.90;99.90;;;;;;5009749;28;20420;-76
2021/03/18 11:45:55;;;;;;;6.47;5.50;;;5.90;99.90;;;;;;5009282;28;20234;-76
2021/03/18 11:48:21;;;;;;;5.63;5.03;;;6.00;99.90;;;;;;5009123;28;21029;-76
2021/03/18 11:50:48;;;;;;;4.90;4.50;;;6.10;99.90;;;;;;5009362;28;20629;-76
2021/03/18 11:53:15;;;;;;;5.00;4.60;;;6.30;99.90;;;;;;5009626;28;20205;-75
2021/03/18 11:55:42;;;;;;;4.23;3.93;;;6.60;99.90;;;;;;5009296;28;20664;-76
2021/03/18 11:58:09;;;;;;;4.67;3.93;;;6.90;99.90;;;;;;5009472;28;20210;-75
2021/03/18 12:00:37;;;;;;;4.00;3.70;;;7.00;99.90;;;;;;5009202;28;20224;-75
2021/03/18 12:03:06;;;;;;;3.90;3.47;;;7.10;99.90;;;;;;5009248;28;20205;-75
2021/03/18 12:05:32;;;;;;;3.90;3.60;;;6.80;99.90;;;;;;5009555;28;20245;-75
2021/03/18 12:07:59;;;;;;;3.90;3.60;;;6.80;99.90;;;;;;5009326;28;20264;-76
2021/03/18 12:10:25;;;;;;;5.50;4.03;;;6.80;99.90;;;;;;5009234;28;20217;-75
2021/03/18 12:12:53;;;;;;;5.33;3.27;;;6.80;99.90;;;;;;5009072;28;20229;-75
2021/03/18 12:15:19;;;;;;;3.60;3.30;;;6.90;99.90;;;;;;5008792;28;20213;-75
2021/03/18 12:17:45;;;;;;;3.93;2.70;;;6.90;99.90;;;;;;5008847;28;20244;-76
2021/03/18 12:20:16;;;;;;;3.20;3.00;;;7.00;99.90;;;;;;5008698;28;20237;-76
2021/03/18 12:22:43;;;;;;;3.43;3.13;;;7.00;99.90;;;;;;5008968;28;20190;-76
2021/03/18 12:25:10;;;;;;;3.07;2.87;;;7.00;99.90;;;;;;5008971;28;20206;-76
2021/03/18 12:27:37;;;;;;;2.70;2.50;;;7.00;99.90;;;;;;5008887;28;20256;-75
2021/03/18 12:30:04;;;;;;;3.37;3.00;;;6.90;99.90;;;;;;5008589;28;20711;-75
2021/03/18 12:32:31;;;;;;;3.47;3.17;;;6.90;99.90;;;;;;5008488;28;20216;-75
2021/03/18 12:34:57;;;;;;;3.53;3.23;;;6.90;99.90;;;;;;5008787;28;20209;-75
2021/03/18 12:37:24;;;;;;;4.77;3.70;;;6.80;99.90;;;;;;5009033;28;20213;-75
2021/03/18 12:39:50;;;;;;;4.67;3.13;;;6.80;99.90;;;;;;5008745;28;20209;-75
2021/03/18 12:42:16;;;;;;;3.13;2.83;;;6.90;99.90;;;;;;5008864;28;20240;-75
2021/03/18 12:44:43;;;;;;;4.27;3.13;;;7.00;99.90;;;;;;5008778;28;20209;-75
2021/03/18 12:47:09;;;;;;;3.23;3.00;;;7.30;99.90;;;;;;5008490;28;20205;-75
2021/03/18 12:49:36;;;;;;;3.60;3.10;;;7.30;99.90;;;;;;5007553;28;20205;-75
2021/03/18 12:52:04;;;;;;;3.37;3.07;;;7.40;99.90;;;;;;5008770;28;20256;-76
2021/03/18 12:54:31;;;;;;;3.63;2.50;;;7.30;99.90;;;;;;5008315;28;20608;-75
2021/03/18 12:56:58;;;;;;;4.97;3.30;;;7.30;99.90;;;;;;5008542;28;20205;-75
2021/03/18 12:59:24;;;;;;;2.53;2.33;;;7.30;99.90;;;;;;5008638;28;20216;-75
2021/03/18 13:01:50;;;;;;;2.63;2.43;;;7.10;99.90;;;;;;5008598;28;20259;-75
2021/03/18 13:04:16;;;;;;;3.73;2.70;;;7.00;99.90;;;;;;5008561;28;20210;-75
2021/03/18 13:06:43;;;;;;;2.43;2.20;;;6.90;99.90;;;;;;5008712;28;20212;-75